sensor_id;sensor_type;location;lat;lon;timestamp;P1;durP1;ratioP1;P2;durP2;ratioP2
12363;SDS011;6246;50.826;4.712;2023-08-12T00:00:18;4.32;;;2.40;;
12363;SDS011;6246;50.826;4.712;2023-08-12T00:02:44;3.25;;;2.58;;
12363;SDS011;6246;50.826;4.712;2023-08-12T00:05:10;2.80;;;2.47;;
12363;SDS011;6246;50.826;4.712;2023-08-12T00:07:37;4.88;;;1.98;;
12363;SDS011;6246;50.826;4.712;2023-08-12T00:10:03;2.47;;;2.13;;
12363;SDS011;6246;50.826;4.712;2023-08-12T00:12:33;2.97;;;2.67;;
12363;SDS011;6246;50.826;4.712;2023-08-12T00:14:59;2.58;;;2.33;;
12363;SDS011;6246;50.826;4.712;2023-08-12T00:17:26;2.50;;;2.30;;
12363;SDS011;6246;50.826;4.712;2023-08-12T00:19:52;3.30;;;2.38;;
12363;SDS011;6246;50.826;4.712;2023-08-12T00:22:18;6.10;;;2.72;;
12363;SDS011;6246;50.826;4.712;2023-08-12T00:24:44;3.60;;;2.40;;
12363;SDS011;6246;50.826;4.712;2023-08-12T00:27:10;4.15;;;2.85;;
12363;SDS011;6246;50.826;4.712;2023-08-12T00:29:36;3.88;;;2.78;;
12363;SDS011;6246;50.826;4.712;2023-08-12T00:32:02;2.85;;;2.42;;
12363;SDS011;6246;50.826;4.712;2023-08-12T00:34:29;2.65;;;2.45;;
12363;SDS011;6246;50.826;4.712;2023-08-12T00:36:55;4.03;;;2.55;;
12363;SDS011;6246;50.826;4.712;2023-08-12T00:39:21;4.20;;;2.70;;
12363;SDS011;6246;50.826;4.712;2023-08-12T00:41:47;2.55;;;2.35;;
12363;SDS011;6246;50.826;4.712;2023-08-12T00:44:13;2.88;;;2.15;;
12363;SDS011;6246;50.826;4.712;2023-08-12T00:46:40;2.85;;;2.35;;
12363;SDS011;6246;50.826;4.712;2023-08-12T00:49:06;2.60;;;2.40;;
12363;SDS011;6246;50.826;4.712;2023-08-12T00:51:33;3.00;;;2.45;;
12363;SDS011;6246;50.826;4.712;2023-08-12T00:54:00;3.25;;;2.25;;
12363;SDS011;6246;50.826;4.712;2023-08-12T00:56:28;2.92;;;2.38;;
12363;SDS011;6246;50.826;4.712;2023-08-12T00:58:54;3.08;;;2.17;;
12363;SDS011;6246;50.826;4.712;2023-08-12T01:01:20;4.82;;;2.53;;
12363;SDS011;6246;50.826;4.712;2023-08-12T01:03:47;2.10;;;1.90;;
12363;SDS011;6246;50.826;4.712;2023-08-12T01:06:13;3.90;;;2.55;;
12363;SDS011;6246;50.826;4.712;2023-08-12T01:08:39;2.33;;;2.13;;
12363;SDS011;6246;50.826;4.712;2023-08-12T01:13:58;2.67;;;2.05;;
12363;SDS011;6246;50.826;4.712;2023-08-12T01:16:25;3.08;;;2.53;;
12363;SDS011;6246;50.826;4.712;2023-08-12T01:18:54;2.50;;;2.30;;
12363;SDS011;6246;50.826;4.712;2023-08-12T01:21:21;3.13;;;2.28;;
12363;SDS011;6246;50.826;4.712;2023-08-12T01:23:48;2.65;;;2.10;;
12363;SDS011;6246;50.826;4.712;2023-08-12T01:26:14;2.63;;;2.42;;
12363;SDS011;6246;50.826;4.712;2023-08-12T01:28:40;2.58;;;2.33;;
12363;SDS011;6246;50.826;4.712;2023-08-12T01:33:38;2.40;;;2.10;;
12363;SDS011;6246;50.826;4.712;2023-08-12T01:36:17;2.40;;;2.20;;
12363;SDS011;6246;50.826;4.712;2023-08-12T01:38:45;3.97;;;2.47;;
12363;SDS011;6246;50.826;4.712;2023-08-12T01:41:13;2.42;;;2.20;;
12363;SDS011;6246;50.826;4.712;2023-08-12T01:43:41;2.55;;;2.38;;
12363;SDS011;6246;50.826;4.712;2023-08-12T01:46:07;3.35;;;2.30;;
12363;SDS011;6246;50.826;4.712;2023-08-12T01:48:33;2.85;;;2.38;;
12363;SDS011;6246;50.826;4.712;2023-08-12T01:50:59;3.58;;;2.70;;
12363;SDS011;6246;50.826;4.712;2023-08-12T01:53:25;2.20;;;1.90;;
12363;SDS011;6246;50.826;4.712;2023-08-12T01:55:52;3.17;;;2.20;;
12363;SDS011;6246;50.826;4.712;2023-08-12T01:58:18;3.97;;;2.30;;
12363;SDS011;6246;50.826;4.712;2023-08-12T02:00:44;2.47;;;2.03;;
12363;SDS011;6246;50.826;4.712;2023-08-12T02:03:10;2.70;;;2.50;;
12363;SDS011;6246;50.826;4.712;2023-08-12T02:05:36;4.20;;;2.55;;
12363;SDS011;6246;50.826;4.712;2023-08-12T02:08:02;4.20;;;2.30;;
12363;SDS011;6246;50.826;4.712;2023-08-12T02:10:28;2.30;;;2.13;;
12363;SDS011;6246;50.826;4.712;2023-08-12T02:12:54;2.47;;;2.03;;
12363;SDS011;6246;50.826;4.712;2023-08-12T02:15:20;3.72;;;2.70;;
12363;SDS011;6246;50.826;4.712;2023-08-12T02:17:46;2.63;;;2.40;;
12363;SDS011;6246;50.826;4.712;2023-08-12T02:20:12;3.00;;;2.30;;
12363;SDS011;6246;50.826;4.712;2023-08-12T02:22:38;2.10;;;1.90;;
12363;SDS011;6246;50.826;4.712;2023-08-12T02:25:04;2.33;;;2.22;;
12363;SDS011;6246;50.826;4.712;2023-08-12T02:27:31;2.03;;;1.92;;
12363;SDS011;6246;50.826;4.712;2023-08-12T02:29:57;2.80;;;2.53;;
12363;SDS011;6246;50.826;4.712;2023-08-12T02:32:22;2.47;;;2.05;;
12363;SDS011;6246;50.826;4.712;2023-08-12T02:34:48;2.75;;;1.98;;
12363;SDS011;6246;50.826;4.712;2023-08-12T02:37:14;2.20;;;2.00;;
12363;SDS011;6246;50.826;4.712;2023-08-12T02:39:40;3.17;;;2.38;;
12363;SDS011;6246;50.826;4.712;2023-08-12T02:42:06;2.33;;;2.13;;
12363;SDS011;6246;50.826;4.712;2023-08-12T02:44:32;2.95;;;2.28;;
12363;SDS011;6246;50.826;4.712;2023-08-12T02:46:58;2.33;;;2.08;;
12363;SDS011;6246;50.826;4.712;2023-08-12T02:49:24;5.28;;;2.30;;
12363;SDS011;6246;50.826;4.712;2023-08-12T02:51:50;2.22;;;2.03;;
12363;SDS011;6246;50.826;4.712;2023-08-12T02:54:16;3.05;;;2.03;;
12363;SDS011;6246;50.826;4.712;2023-08-12T02:56:43;3.30;;;2.50;;
12363;SDS011;6246;50.826;4.712;2023-08-12T02:59:09;2.97;;;2.13;;
12363;SDS011;6246;50.826;4.712;2023-08-12T03:01:35;3.55;;;2.45;;
12363;SDS011;6246;50.826;4.712;2023-08-12T03:04:01;2.50;;;2.30;;
12363;SDS011;6246;50.826;4.712;2023-08-12T03:06:27;2.20;;;2.10;;
12363;SDS011;6246;50.826;4.712;2023-08-12T03:08:53;2.30;;;2.10;;
12363;SDS011;6246;50.826;4.712;2023-08-12T03:11:19;2.80;;;2.13;;
12363;SDS011;6246;50.826;4.712;2023-08-12T03:13:45;3.75;;;2.67;;
12363;SDS011;6246;50.826;4.712;2023-08-12T03:16:12;2.60;;;2.38;;
12363;SDS011;6246;50.826;4.712;2023-08-12T03:18:38;2.75;;;2.45;;
12363;SDS011;6246;50.826;4.712;2023-08-12T03:21:05;2.28;;;1.65;;
12363;SDS011;6246;50.826;4.712;2023-08-12T03:23:31;4.38;;;2.35;;
12363;SDS011;6246;50.826;4.712;2023-08-12T03:25:57;2.42;;;2.33;;
12363;SDS011;6246;50.826;4.712;2023-08-12T03:28:23;4.18;;;2.42;;
12363;SDS011;6246;50.826;4.712;2023-08-12T03:30:50;2.30;;;1.95;;
12363;SDS011;6246;50.826;4.712;2023-08-12T03:33:17;2.45;;;2.20;;
12363;SDS011;6246;50.826;4.712;2023-08-12T03:35:46;1.90;;;1.80;;
12363;SDS011;6246;50.826;4.712;2023-08-12T03:38:12;2.88;;;2.15;;
12363;SDS011;6246;50.826;4.712;2023-08-12T03:40:39;3.95;;;2.10;;
12363;SDS011;6246;50.826;4.712;2023-08-12T03:43:05;2.40;;;2.20;;
12363;SDS011;6246;50.826;4.712;2023-08-12T03:45:31;2.88;;;2.10;;
12363;SDS011;6246;50.826;4.712;2023-08-12T03:47:57;2.08;;;1.88;;
12363;SDS011;6246;50.826;4.712;2023-08-12T03:50:23;2.33;;;2.13;;
12363;SDS011;6246;50.826;4.712;2023-08-12T03:52:49;2.30;;;2.10;;
12363;SDS011;6246;50.826;4.712;2023-08-12T03:55:15;3.33;;;2.30;;
12363;SDS011;6246;50.826;4.712;2023-08-12T03:57:41;2.00;;;1.90;;
12363;SDS011;6246;50.826;4.712;2023-08-12T04:00:07;3.25;;;2.08;;
12363;SDS011;6246;50.826;4.712;2023-08-12T04:02:33;2.35;;;1.92;;
12363;SDS011;6246;50.826;4.712;2023-08-12T04:04:59;1.88;;;1.77;;
12363;SDS011;6246;50.826;4.712;2023-08-12T04:07:25;2.95;;;2.42;;
12363;SDS011;6246;50.826;4.712;2023-08-12T04:09:52;2.53;;;2.33;;
12363;SDS011;6246;50.826;4.712;2023-08-12T04:12:18;2.03;;;1.83;;
12363;SDS011;6246;50.826;4.712;2023-08-12T04:14:44;2.28;;;2.08;;
12363;SDS011;6246;50.826;4.712;2023-08-12T04:17:10;2.33;;;2.10;;
12363;SDS011;6246;50.826;4.712;2023-08-12T04:19:36;2.75;;;2.47;;
12363;SDS011;6246;50.826;4.712;2023-08-12T04:22:02;2.20;;;2.00;;
12363;SDS011;6246;50.826;4.712;2023-08-12T04:24:28;2.08;;;1.98;;
12363;SDS011;6246;50.826;4.712;2023-08-12T04:26:54;2.25;;;2.13;;
12363;SDS011;6246;50.826;4.712;2023-08-12T04:29:20;2.63;;;1.80;;
12363;SDS011;6246;50.826;4.712;2023-08-12T04:31:46;2.60;;;1.98;;
12363;SDS011;6246;50.826;4.712;2023-08-12T04:34:12;2.88;;;2.00;;
12363;SDS011;6246;50.826;4.712;2023-08-12T04:36:38;2.40;;;2.20;;
12363;SDS011;6246;50.826;4.712;2023-08-12T04:39:04;2.97;;;2.25;;
12363;SDS011;6246;50.826;4.712;2023-08-12T04:41:30;2.70;;;2.50;;
12363;SDS011;6246;50.826;4.712;2023-08-12T04:43:56;2.67;;;2.35;;
12363;SDS011;6246;50.826;4.712;2023-08-12T04:46:22;2.42;;;2.22;;
12363;SDS011;6246;50.826;4.712;2023-08-12T04:48:48;2.50;;;1.92;;
12363;SDS011;6246;50.826;4.712;2023-08-12T04:51:14;2.85;;;1.95;;
12363;SDS011;6246;50.826;4.712;2023-08-12T04:53:40;2.22;;;2.08;;
12363;SDS011;6246;50.826;4.712;2023-08-12T04:56:06;5.40;;;2.13;;
12363;SDS011;6246;50.826;4.712;2023-08-12T04:58:32;2.97;;;2.72;;
12363;SDS011;6246;50.826;4.712;2023-08-12T05:00:58;2.42;;;2.22;;
12363;SDS011;6246;50.826;4.712;2023-08-12T05:03:26;2.75;;;2.42;;
12363;SDS011;6246;50.826;4.712;2023-08-12T05:05:52;2.15;;;1.95;;
12363;SDS011;6246;50.826;4.712;2023-08-12T05:08:19;2.25;;;2.05;;
12363;SDS011;6246;50.826;4.712;2023-08-12T05:10:48;1.92;;;1.63;;
12363;SDS011;6246;50.826;4.712;2023-08-12T05:13:14;2.00;;;1.80;;
12363;SDS011;6246;50.826;4.712;2023-08-12T05:15:40;2.65;;;2.17;;
12363;SDS011;6246;50.826;4.712;2023-08-12T05:18:06;2.30;;;2.10;;
12363;SDS011;6246;50.826;4.712;2023-08-12T05:20:32;2.28;;;1.85;;
12363;SDS011;6246;50.826;4.712;2023-08-12T05:22:58;2.97;;;2.25;;
12363;SDS011;6246;50.826;4.712;2023-08-12T05:25:24;3.03;;;2.10;;
12363;SDS011;6246;50.826;4.712;2023-08-12T05:27:50;2.72;;;2.30;;
12363;SDS011;6246;50.826;4.712;2023-08-12T05:30:16;2.85;;;2.20;;
12363;SDS011;6246;50.826;4.712;2023-08-12T05:32:42;2.95;;;2.20;;
12363;SDS011;6246;50.826;4.712;2023-08-12T05:35:09;2.75;;;2.55;;
12363;SDS011;6246;50.826;4.712;2023-08-12T05:37:35;1.73;;;1.63;;
12363;SDS011;6246;50.826;4.712;2023-08-12T05:40:01;2.72;;;2.25;;
12363;SDS011;6246;50.826;4.712;2023-08-12T05:42:29;2.03;;;1.88;;
12363;SDS011;6246;50.826;4.712;2023-08-12T05:44:55;2.92;;;2.10;;
12363;SDS011;6246;50.826;4.712;2023-08-12T05:47:21;2.33;;;2.13;;
12363;SDS011;6246;50.826;4.712;2023-08-12T05:49:47;2.78;;;2.22;;
12363;SDS011;6246;50.826;4.712;2023-08-12T05:52:13;2.17;;;2.05;;
12363;SDS011;6246;50.826;4.712;2023-08-12T05:54:39;2.00;;;1.90;;
12363;SDS011;6246;50.826;4.712;2023-08-12T05:57:05;1.92;;;1.83;;
12363;SDS011;6246;50.826;4.712;2023-08-12T05:59:31;2.00;;;1.90;;
12363;SDS011;6246;50.826;4.712;2023-08-12T06:01:57;2.17;;;1.98;;
12363;SDS011;6246;50.826;4.712;2023-08-12T06:04:23;1.95;;;1.85;;
12363;SDS011;6246;50.826;4.712;2023-08-12T06:06:49;2.10;;;1.80;;
12363;SDS011;6246;50.826;4.712;2023-08-12T06:09:15;1.70;;;1.60;;
12363;SDS011;6246;50.826;4.712;2023-08-12T06:11:41;2.40;;;2.20;;
12363;SDS011;6246;50.826;4.712;2023-08-12T06:14:07;2.30;;;2.15;;
12363;SDS011;6246;50.826;4.712;2023-08-12T06:16:34;2.42;;;2.22;;
12363;SDS011;6246;50.826;4.712;2023-08-12T06:19:00;3.05;;;2.00;;
12363;SDS011;6246;50.826;4.712;2023-08-12T06:21:26;1.70;;;1.60;;
12363;SDS011;6246;50.826;4.712;2023-08-12T06:23:52;2.33;;;2.13;;
12363;SDS011;6246;50.826;4.712;2023-08-12T06:26:18;2.28;;;1.90;;
12363;SDS011;6246;50.826;4.712;2023-08-12T06:28:44;3.90;;;2.10;;
12363;SDS011;6246;50.826;4.712;2023-08-12T06:31:10;2.05;;;1.95;;
12363;SDS011;6246;50.826;4.712;2023-08-12T06:33:36;1.73;;;1.63;;
12363;SDS011;6246;50.826;4.712;2023-08-12T06:36:02;1.80;;;1.70;;
12363;SDS011;6246;50.826;4.712;2023-08-12T06:38:28;3.67;;;2.10;;
12363;SDS011;6246;50.826;4.712;2023-08-12T06:40:54;1.98;;;1.80;;
12363;SDS011;6246;50.826;4.712;2023-08-12T06:43:20;2.10;;;1.90;;
12363;SDS011;6246;50.826;4.712;2023-08-12T06:45:46;2.05;;;1.85;;
12363;SDS011;6246;50.826;4.712;2023-08-12T06:48:12;1.70;;;1.60;;
12363;SDS011;6246;50.826;4.712;2023-08-12T06:50:38;1.80;;;1.70;;
12363;SDS011;6246;50.826;4.712;2023-08-12T06:53:04;1.73;;;1.63;;
12363;SDS011;6246;50.826;4.712;2023-08-12T06:55:30;2.17;;;1.98;;
12363;SDS011;6246;50.826;4.712;2023-08-12T06:57:56;1.75;;;1.65;;
12363;SDS011;6246;50.826;4.712;2023-08-12T07:00:22;1.85;;;1.75;;
12363;SDS011;6246;50.826;4.712;2023-08-12T07:02:48;1.80;;;1.70;;
12363;SDS011;6246;50.826;4.712;2023-08-12T07:05:14;1.70;;;1.60;;
12363;SDS011;6246;50.826;4.712;2023-08-12T07:07:40;1.70;;;1.60;;
12363;SDS011;6246;50.826;4.712;2023-08-12T07:10:07;1.58;;;1.48;;
12363;SDS011;6246;50.826;4.712;2023-08-12T07:12:33;2.10;;;1.83;;
12363;SDS011;6246;50.826;4.712;2023-08-12T07:15:00;1.60;;;1.50;;
12363;SDS011;6246;50.826;4.712;2023-08-12T07:17:26;1.70;;;1.60;;
12363;SDS011;6246;50.826;4.712;2023-08-12T07:19:52;2.17;;;1.83;;
12363;SDS011;6246;50.826;4.712;2023-08-12T07:22:18;1.65;;;1.55;;
12363;SDS011;6246;50.826;4.712;2023-08-12T07:24:45;1.85;;;1.75;;
12363;SDS011;6246;50.826;4.712;2023-08-12T07:27:11;1.45;;;1.35;;
12363;SDS011;6246;50.826;4.712;2023-08-12T07:29:37;1.50;;;1.40;;
12363;SDS011;6246;50.826;4.712;2023-08-12T07:32:03;1.63;;;1.52;;
12363;SDS011;6246;50.826;4.712;2023-08-12T07:34:29;1.83;;;1.73;;
12363;SDS011;6246;50.826;4.712;2023-08-12T07:36:55;1.88;;;1.77;;
12363;SDS011;6246;50.826;4.712;2023-08-12T07:39:21;1.55;;;1.50;;
12363;SDS011;6246;50.826;4.712;2023-08-12T07:41:47;1.55;;;1.45;;
12363;SDS011;6246;50.826;4.712;2023-08-12T07:44:13;2.25;;;1.65;;
12363;SDS011;6246;50.826;4.712;2023-08-12T07:46:39;2.65;;;1.55;;
12363;SDS011;6246;50.826;4.712;2023-08-12T07:49:05;1.35;;;1.20;;
12363;SDS011;6246;50.826;4.712;2023-08-12T07:51:31;1.80;;;1.70;;
12363;SDS011;6246;50.826;4.712;2023-08-12T07:53:57;1.30;;;1.20;;
12363;SDS011;6246;50.826;4.712;2023-08-12T07:56:23;4.60;;;2.10;;
12363;SDS011;6246;50.826;4.712;2023-08-12T07:58:49;3.60;;;1.65;;
12363;SDS011;6246;50.826;4.712;2023-08-12T08:01:15;1.48;;;1.35;;
12363;SDS011;6246;50.826;4.712;2023-08-12T08:03:41;2.88;;;1.48;;
12363;SDS011;6246;50.826;4.712;2023-08-12T08:06:07;8.38;;;1.55;;
12363;SDS011;6246;50.826;4.712;2023-08-12T08:08:33;2.50;;;1.33;;
12363;SDS011;6246;50.826;4.712;2023-08-12T08:10:59;2.88;;;1.42;;
12363;SDS011;6246;50.826;4.712;2023-08-12T08:13:25;2.50;;;1.48;;
12363;SDS011;6246;50.826;4.712;2023-08-12T08:15:51;1.88;;;1.63;;
12363;SDS011;6246;50.826;4.712;2023-08-12T08:18:17;3.30;;;1.60;;
12363;SDS011;6246;50.826;4.712;2023-08-12T08:20:43;5.93;;;1.85;;
12363;SDS011;6246;50.826;4.712;2023-08-12T08:23:10;2.08;;;1.33;;
12363;SDS011;6246;50.826;4.712;2023-08-12T08:25:36;3.42;;;1.58;;
12363;SDS011;6246;50.826;4.712;2023-08-12T08:28:02;1.85;;;1.73;;
12363;SDS011;6246;50.826;4.712;2023-08-12T08:30:28;2.55;;;1.23;;
12363;SDS011;6246;50.826;4.712;2023-08-12T08:32:54;1.92;;;1.67;;
12363;SDS011;6246;50.826;4.712;2023-08-12T08:35:20;2.00;;;1.80;;
12363;SDS011;6246;50.826;4.712;2023-08-12T08:37:46;1.67;;;1.42;;
12363;SDS011;6246;50.826;4.712;2023-08-12T08:40:12;2.00;;;1.45;;
12363;SDS011;6246;50.826;4.712;2023-08-12T08:42:38;2.42;;;1.52;;
12363;SDS011;6246;50.826;4.712;2023-08-12T08:45:05;2.65;;;1.30;;
12363;SDS011;6246;50.826;4.712;2023-08-12T08:47:34;5.00;;;1.40;;
12363;SDS011;6246;50.826;4.712;2023-08-12T08:50:00;2.80;;;1.45;;
12363;SDS011;6246;50.826;4.712;2023-08-12T08:52:26;1.38;;;1.15;;
12363;SDS011;6246;50.826;4.712;2023-08-12T08:54:53;2.17;;;1.50;;
12363;SDS011;6246;50.826;4.712;2023-08-12T08:57:19;1.50;;;1.40;;
12363;SDS011;6246;50.826;4.712;2023-08-12T08:59:45;1.92;;;1.70;;
12363;SDS011;6246;50.826;4.712;2023-08-12T09:02:17;3.42;;;1.63;;
12363;SDS011;6246;50.826;4.712;2023-08-12T09:04:44;2.60;;;1.33;;
12363;SDS011;6246;50.826;4.712;2023-08-12T09:07:11;2.47;;;1.23;;
12363;SDS011;6246;50.826;4.712;2023-08-12T09:09:40;1.70;;;1.35;;
12363;SDS011;6246;50.826;4.712;2023-08-12T09:12:08;1.38;;;1.27;;
12363;SDS011;6246;50.826;4.712;2023-08-12T09:14:34;1.35;;;1.25;;
12363;SDS011;6246;50.826;4.712;2023-08-12T09:17:01;3.35;;;2.00;;
12363;SDS011;6246;50.826;4.712;2023-08-12T09:19:27;1.83;;;1.25;;
12363;SDS011;6246;50.826;4.712;2023-08-12T09:21:54;4.93;;;1.60;;
12363;SDS011;6246;50.826;4.712;2023-08-12T09:24:24;4.93;;;1.52;;
12363;SDS011;6246;50.826;4.712;2023-08-12T09:26:53;1.80;;;1.40;;
12363;SDS011;6246;50.826;4.712;2023-08-12T09:29:38;1.85;;;1.65;;
12363;SDS011;6246;50.826;4.712;2023-08-12T09:32:17;5.07;;;1.95;;
12363;SDS011;6246;50.826;4.712;2023-08-12T09:34:50;4.07;;;1.80;;
12363;SDS011;6246;50.826;4.712;2023-08-12T09:37:20;2.60;;;1.55;;
12363;SDS011;6246;50.826;4.712;2023-08-12T09:39:47;3.15;;;1.80;;
12363;SDS011;6246;50.826;4.712;2023-08-12T09:42:14;4.07;;;1.50;;
12363;SDS011;6246;50.826;4.712;2023-08-12T09:44:41;3.50;;;1.13;;
12363;SDS011;6246;50.826;4.712;2023-08-12T09:47:07;4.72;;;1.42;;
12363;SDS011;6246;50.826;4.712;2023-08-12T09:49:37;9.93;;;2.00;;
12363;SDS011;6246;50.826;4.712;2023-08-12T09:52:03;9.60;;;2.00;;
12363;SDS011;6246;50.826;4.712;2023-08-12T09:54:32;3.53;;;1.60;;
12363;SDS011;6246;50.826;4.712;2023-08-12T09:57:00;4.30;;;1.70;;
12363;SDS011;6246;50.826;4.712;2023-08-12T09:59:30;3.17;;;1.88;;
12363;SDS011;6246;50.826;4.712;2023-08-12T10:01:57;6.10;;;1.50;;
12363;SDS011;6246;50.826;4.712;2023-08-12T10:04:25;5.53;;;1.88;;
12363;SDS011;6246;50.826;4.712;2023-08-12T10:06:52;4.93;;;1.58;;
12363;SDS011;6246;50.826;4.712;2023-08-12T10:09:18;11.57;;;1.50;;
12363;SDS011;6246;50.826;4.712;2023-08-12T10:11:45;2.60;;;1.45;;
12363;SDS011;6246;50.826;4.712;2023-08-12T10:14:12;2.95;;;1.63;;
12363;SDS011;6246;50.826;4.712;2023-08-12T10:16:38;3.60;;;1.58;;
12363;SDS011;6246;50.826;4.712;2023-08-12T10:19:04;3.92;;;1.73;;
12363;SDS011;6246;50.826;4.712;2023-08-12T10:21:31;3.33;;;1.23;;
12363;SDS011;6246;50.826;4.712;2023-08-12T10:23:58;4.60;;;1.25;;
12363;SDS011;6246;50.826;4.712;2023-08-12T10:26:24;2.90;;;1.20;;
12363;SDS011;6246;50.826;4.712;2023-08-12T10:28:50;6.82;;;1.73;;
12363;SDS011;6246;50.826;4.712;2023-08-12T10:31:16;3.28;;;1.55;;
12363;SDS011;6246;50.826;4.712;2023-08-12T10:33:44;2.67;;;1.30;;
12363;SDS011;6246;50.826;4.712;2023-08-12T10:36:13;2.47;;;1.30;;
12363;SDS011;6246;50.826;4.712;2023-08-12T10:38:40;2.38;;;1.17;;
12363;SDS011;6246;50.826;4.712;2023-08-12T10:46:23;3.88;;;1.30;;
12363;SDS011;6246;50.826;4.712;2023-08-12T10:49:22;3.92;;;1.67;;
12363;SDS011;6246;50.826;4.712;2023-08-12T10:54:17;3.92;;;1.60;;
12363;SDS011;6246;50.826;4.712;2023-08-12T11:02:28;5.20;;;1.70;;
12363;SDS011;6246;50.826;4.712;2023-08-12T11:04:55;4.82;;;1.80;;
12363;SDS011;6246;50.826;4.712;2023-08-12T11:07:44;6.63;;;1.75;;
12363;SDS011;6246;50.826;4.712;2023-08-12T11:12:38;4.38;;;1.75;;
12363;SDS011;6246;50.826;4.712;2023-08-12T11:15:04;4.00;;;1.52;;
12363;SDS011;6246;50.826;4.712;2023-08-12T11:17:38;3.83;;;1.77;;
12363;SDS011;6246;50.826;4.712;2023-08-12T11:20:05;4.38;;;1.52;;
12363;SDS011;6246;50.826;4.712;2023-08-12T11:22:35;2.70;;;1.70;;
12363;SDS011;6246;50.826;4.712;2023-08-12T11:25:02;8.57;;;2.03;;
12363;SDS011;6246;50.826;4.712;2023-08-12T11:27:31;4.28;;;1.83;;
12363;SDS011;6246;50.826;4.712;2023-08-12T11:30:01;7.18;;;1.35;;
12363;SDS011;6246;50.826;4.712;2023-08-12T11:32:27;9.75;;;2.22;;
12363;SDS011;6246;50.826;4.712;2023-08-12T11:34:53;6.63;;;2.10;;
12363;SDS011;6246;50.826;4.712;2023-08-12T11:37:19;3.03;;;1.42;;
12363;SDS011;6246;50.826;4.712;2023-08-12T11:39:45;5.40;;;1.77;;
12363;SDS011;6246;50.826;4.712;2023-08-12T11:42:11;6.80;;;1.85;;
12363;SDS011;6246;50.826;4.712;2023-08-12T11:44:37;6.18;;;1.67;;
12363;SDS011;6246;50.826;4.712;2023-08-12T11:47:05;6.50;;;1.75;;
12363;SDS011;6246;50.826;4.712;2023-08-12T11:49:31;3.25;;;1.67;;
12363;SDS011;6246;50.826;4.712;2023-08-12T11:51:57;2.95;;;1.50;;
12363;SDS011;6246;50.826;4.712;2023-08-12T11:54:23;4.43;;;1.48;;
12363;SDS011;6246;50.826;4.712;2023-08-12T11:56:50;2.75;;;1.48;;
12363;SDS011;6246;50.826;4.712;2023-08-12T11:59:16;1.50;;;1.20;;
12363;SDS011;6246;50.826;4.712;2023-08-12T12:01:45;3.80;;;1.52;;
12363;SDS011;6246;50.826;4.712;2023-08-12T12:04:13;8.10;;;1.85;;
12363;SDS011;6246;50.826;4.712;2023-08-12T12:06:41;2.00;;;1.67;;
12363;SDS011;6246;50.826;4.712;2023-08-12T12:09:07;4.68;;;1.50;;
12363;SDS011;6246;50.826;4.712;2023-08-12T12:11:39;4.40;;;1.48;;
12363;SDS011;6246;50.826;4.712;2023-08-12T12:14:06;3.72;;;1.25;;
12363;SDS011;6246;50.826;4.712;2023-08-12T12:16:45;6.22;;;1.75;;
12363;SDS011;6246;50.826;4.712;2023-08-12T12:19:14;3.22;;;1.52;;
12363;SDS011;6246;50.826;4.712;2023-08-12T12:21:41;4.25;;;1.58;;
12363;SDS011;6246;50.826;4.712;2023-08-12T12:24:08;2.38;;;1.38;;
12363;SDS011;6246;50.826;4.712;2023-08-12T12:26:34;3.65;;;1.55;;
12363;SDS011;6246;50.826;4.712;2023-08-12T12:29:01;6.75;;;1.73;;
12363;SDS011;6246;50.826;4.712;2023-08-12T12:31:27;1.67;;;1.33;;
12363;SDS011;6246;50.826;4.712;2023-08-12T12:33:53;3.22;;;1.50;;
12363;SDS011;6246;50.826;4.712;2023-08-12T12:36:19;2.95;;;1.77;;
12363;SDS011;6246;50.826;4.712;2023-08-12T12:38:45;2.97;;;1.48;;
12363;SDS011;6246;50.826;4.712;2023-08-12T12:41:11;3.35;;;1.63;;
12363;SDS011;6246;50.826;4.712;2023-08-12T12:43:37;4.35;;;1.58;;
12363;SDS011;6246;50.826;4.712;2023-08-12T12:46:03;2.78;;;1.27;;
12363;SDS011;6246;50.826;4.712;2023-08-12T12:48:29;3.83;;;1.67;;
12363;SDS011;6246;50.826;4.712;2023-08-12T12:50:55;2.33;;;1.20;;
12363;SDS011;6246;50.826;4.712;2023-08-12T12:53:21;2.97;;;1.02;;
12363;SDS011;6246;50.826;4.712;2023-08-12T12:55:47;3.08;;;1.20;;
12363;SDS011;6246;50.826;4.712;2023-08-12T12:58:13;1.88;;;1.27;;
12363;SDS011;6246;50.826;4.712;2023-08-12T13:00:39;1.40;;;1.13;;
12363;SDS011;6246;50.826;4.712;2023-08-12T13:03:05;2.50;;;1.30;;
12363;SDS011;6246;50.826;4.712;2023-08-12T13:05:31;1.50;;;1.40;;
12363;SDS011;6246;50.826;4.712;2023-08-12T13:07:57;1.83;;;1.60;;
12363;SDS011;6246;50.826;4.712;2023-08-12T13:10:23;3.03;;;1.48;;
12363;SDS011;6246;50.826;4.712;2023-08-12T13:12:49;2.33;;;1.27;;
12363;SDS011;6246;50.826;4.712;2023-08-12T13:15:15;2.30;;;1.13;;
12363;SDS011;6246;50.826;4.712;2023-08-12T13:17:41;2.85;;;1.02;;
12363;SDS011;6246;50.826;4.712;2023-08-12T13:20:07;2.35;;;1.13;;
12363;SDS011;6246;50.826;4.712;2023-08-12T13:22:34;2.22;;;1.38;;
12363;SDS011;6246;50.826;4.712;2023-08-12T13:25:00;1.05;;;0.95;;
12363;SDS011;6246;50.826;4.712;2023-08-12T13:27:26;1.73;;;1.10;;
12363;SDS011;6246;50.826;4.712;2023-08-12T13:29:52;1.50;;;1.33;;
12363;SDS011;6246;50.826;4.712;2023-08-12T13:32:18;2.42;;;1.27;;
12363;SDS011;6246;50.826;4.712;2023-08-12T13:34:44;2.50;;;1.23;;
12363;SDS011;6246;50.826;4.712;2023-08-12T13:37:12;4.60;;;1.30;;
12363;SDS011;6246;50.826;4.712;2023-08-12T13:39:38;1.17;;;1.08;;
12363;SDS011;6246;50.826;4.712;2023-08-12T13:42:04;3.47;;;1.30;;
12363;SDS011;6246;50.826;4.712;2023-08-12T13:44:30;2.40;;;1.30;;
12363;SDS011;6246;50.826;4.712;2023-08-12T13:46:56;1.95;;;1.30;;
12363;SDS011;6246;50.826;4.712;2023-08-12T13:49:22;2.30;;;1.27;;
12363;SDS011;6246;50.826;4.712;2023-08-12T13:51:48;5.40;;;1.30;;
12363;SDS011;6246;50.826;4.712;2023-08-12T13:54:14;4.25;;;1.73;;
12363;SDS011;6246;50.826;4.712;2023-08-12T13:56:40;3.35;;;1.70;;
12363;SDS011;6246;50.826;4.712;2023-08-12T13:59:06;1.42;;;1.13;;
12363;SDS011;6246;50.826;4.712;2023-08-12T14:01:32;1.65;;;1.52;;
12363;SDS011;6246;50.826;4.712;2023-08-12T14:03:58;2.63;;;1.45;;
12363;SDS011;6246;50.826;4.712;2023-08-12T14:06:24;1.60;;;1.30;;
12363;SDS011;6246;50.826;4.712;2023-08-12T14:08:50;2.63;;;1.38;;
12363;SDS011;6246;50.826;4.712;2023-08-12T14:11:16;2.28;;;1.38;;
12363;SDS011;6246;50.826;4.712;2023-08-12T14:13:42;3.80;;;1.40;;
12363;SDS011;6246;50.826;4.712;2023-08-12T14:16:08;1.92;;;1.38;;
12363;SDS011;6246;50.826;4.712;2023-08-12T14:18:34;3.28;;;1.65;;
12363;SDS011;6246;50.826;4.712;2023-08-12T14:21:00;3.60;;;1.90;;
12363;SDS011;6246;50.826;4.712;2023-08-12T14:23:26;2.30;;;1.25;;
12363;SDS011;6246;50.826;4.712;2023-08-12T14:25:52;2.17;;;1.58;;
12363;SDS011;6246;50.826;4.712;2023-08-12T14:28:18;3.35;;;1.50;;
12363;SDS011;6246;50.826;4.712;2023-08-12T14:30:44;2.28;;;1.52;;
12363;SDS011;6246;50.826;4.712;2023-08-12T14:33:10;2.83;;;1.67;;
12363;SDS011;6246;50.826;4.712;2023-08-12T14:35:36;3.38;;;1.50;;
12363;SDS011;6246;50.826;4.712;2023-08-12T14:38:02;4.50;;;1.80;;
12363;SDS011;6246;50.826;4.712;2023-08-12T14:40:28;1.92;;;1.48;;
12363;SDS011;6246;50.826;4.712;2023-08-12T14:42:54;4.63;;;1.23;;
12363;SDS011;6246;50.826;4.712;2023-08-12T14:45:20;1.92;;;1.40;;
12363;SDS011;6246;50.826;4.712;2023-08-12T14:47:46;2.17;;;1.50;;
12363;SDS011;6246;50.826;4.712;2023-08-12T14:50:12;2.33;;;1.23;;
12363;SDS011;6246;50.826;4.712;2023-08-12T14:52:38;2.38;;;1.38;;
12363;SDS011;6246;50.826;4.712;2023-08-12T14:55:04;4.72;;;1.13;;
12363;SDS011;6246;50.826;4.712;2023-08-12T14:57:30;3.67;;;1.83;;
12363;SDS011;6246;50.826;4.712;2023-08-12T14:59:56;5.70;;;1.83;;
12363;SDS011;6246;50.826;4.712;2023-08-12T15:02:23;5.70;;;2.13;;
12363;SDS011;6246;50.826;4.712;2023-08-12T15:04:49;2.67;;;1.48;;
12363;SDS011;6246;50.826;4.712;2023-08-12T15:07:15;5.30;;;1.75;;
12363;SDS011;6246;50.826;4.712;2023-08-12T15:09:41;6.57;;;2.03;;
12363;SDS011;6246;50.826;4.712;2023-08-12T15:12:07;5.90;;;1.90;;
12363;SDS011;6246;50.826;4.712;2023-08-12T15:14:33;4.18;;;1.42;;
12363;SDS011;6246;50.826;4.712;2023-08-12T15:16:59;4.03;;;1.80;;